This is the latest recevied weather packets stored in our database for station/object K5OBH. If no packets are shown the sender has not sent any weather packets the latest 1 day(s).
| Time | Temp. | Humidity | Pressure | Rain* | Wind** | Luminosity | Snow |
|---|---|---|---|---|---|---|---|
| 1778017855 | 12.78° C | 75% | 1008.8 hPa | 0 mm | 4.02 m/s, 357° | 111 W/m² | - |
| 1778017553 | 12.22° C | 77% | 1008.5 hPa | 0 mm | 2.24 m/s, 55° | 110 W/m² | - |
| 1778017249 | 12.22° C | 77% | 1008.5 hPa | 0 mm | 3.13 m/s, 345° | 115 W/m² | - |
| 1778016948 | 12.22° C | 77% | 1008.3 hPa | 0 mm | 4.02 m/s, 15° | 117 W/m² | - |
| 1778016643 | 12.22° C | 78% | 1008.5 hPa | 0 mm | 3.13 m/s, 2° | 111 W/m² | - |
| 1778016340 | 12.22° C | 77% | 1008.8 hPa | 0 mm | 2.24 m/s, 86° | 72 W/m² | - |
| 1778016038 | 12.78° C | 77% | 1008.3 hPa | 0 mm | 3.13 m/s, 7° | 107 W/m² | - |
| 1778015734 | 12.78° C | 77% | 1008.6 hPa | 0 mm | 2.68 m/s, 13° | 105 W/m² | - |
| 1778015431 | 12.78° C | 78% | 1008.1 hPa | 0 mm | 3.13 m/s, 22° | 119 W/m² | - |
| 1778015128 | 12.22° C | 77% | 1007.6 hPa | 0 mm | 3.58 m/s, 21° | 139 W/m² | - |
| 1778014825 | 12.22° C | 77% | 1007.8 hPa | 0 mm | 5.36 m/s, 347° | 164 W/m² | - |
| 1778014523 | 12.78° C | 77% | 1007.4 hPa | 0 mm | 4.02 m/s, 22° | 238 W/m² | - |
| 1778014220 | 12.78° C | 77% | 1007.4 hPa | 0 mm | 4.92 m/s, 15° | 285 W/m² | - |
| 1778013918 | 12.78° C | 77% | 1008.3 hPa | 0 mm | 5.36 m/s, 14° | 190 W/m² | - |
| 1778013615 | 12.78° C | 78% | 1007.9 hPa | 0 mm | 4.47 m/s, 354° | 229 W/m² | - |
| 1778013311 | 12.78° C | 78% | 1008.1 hPa | 0 mm | 3.13 m/s, 338° | 181 W/m² | - |
| 1778013008 | 12.78° C | 79% | 1008.2 hPa | 0 mm | 4.47 m/s, 46° | 178 W/m² | - |
| 1778012704 | 12.78° C | 79% | 1008.4 hPa | 0 mm | 4.02 m/s, 0° | 184 W/m² | - |
| 1778012400 | 12.22° C | 80% | 1008 hPa | 0 mm | 4.47 m/s, 344° | 215 W/m² | - |
| 1778012097 | 12.22° C | 80% | 1008.6 hPa | 0 mm | 2.68 m/s, 35° | 89 W/m² | - |
| 1778011795 | 12.22° C | 81% | 1008.2 hPa | 0 mm | 2.68 m/s, 359° | 140 W/m² | - |
| 1778011493 | 12.22° C | 81% | 1008.2 hPa | 0 mm | 3.58 m/s, 3° | 119 W/m² | - |
| 1778011188 | 12.22° C | 81% | 1008.1 hPa | 0 mm | 5.36 m/s, 9° | 122 W/m² | - |
| 1778010885 | 12.78° C | 80% | 1007.8 hPa | 0 mm | 3.13 m/s, 350° | 158 W/m² | - |
| 1778010583 | 12.22° C | 81% | 1007.5 hPa | 0 mm | 4.02 m/s, 28° | 206 W/m² | - |
* Rain latest hour (hover to see other rain measurements)
** Current wind speed in m/s (hover to see current wind gust speed)